sensor_id;sensor_type;location;lat;lon;timestamp;P1;durP1;ratioP1;P2;durP2;ratioP2
61739;SDS011;47645;45.288;12.038;2023-07-16T00:02:37;7.3;;;4.0;;
61739;SDS011;47645;45.288;12.038;2023-07-16T00:12:38;5.9;;;3.9;;
61739;SDS011;47645;45.288;12.038;2023-07-16T00:22:40;7.5;;;3.8;;
61739;SDS011;47645;45.288;12.038;2023-07-16T00:32:41;8.2;;;4.8;;
61739;SDS011;47645;45.288;12.038;2023-07-16T00:42:43;6.3;;;3.8;;
61739;SDS011;47645;45.288;12.038;2023-07-16T00:52:44;6.1;;;3.6;;
61739;SDS011;47645;45.288;12.038;2023-07-16T01:02:46;7.1;;;3.9;;
61739;SDS011;47645;45.288;12.038;2023-07-16T01:12:48;9.0;;;5.4;;
61739;SDS011;47645;45.288;12.038;2023-07-16T01:22:55;6.5;;;4.0;;
61739;SDS011;47645;45.288;12.038;2023-07-16T01:32:51;10.5;;;6.1;;
61739;SDS011;47645;45.288;12.038;2023-07-16T01:42:52;10.7;;;5.1;;
61739;SDS011;47645;45.288;12.038;2023-07-16T01:52:54;11.4;;;6.0;;
61739;SDS011;47645;45.288;12.038;2023-07-16T02:02:56;9.9;;;4.6;;
61739;SDS011;47645;45.288;12.038;2023-07-16T02:12:57;9.1;;;5.1;;
61739;SDS011;47645;45.288;12.038;2023-07-16T02:22:59;14.0;;;7.2;;
61739;SDS011;47645;45.288;12.038;2023-07-16T02:33:00;12.5;;;6.4;;
61739;SDS011;47645;45.288;12.038;2023-07-16T02:43:02;7.8;;;4.4;;
61739;SDS011;47645;45.288;12.038;2023-07-16T02:53:04;12.8;;;7.0;;
61739;SDS011;47645;45.288;12.038;2023-07-16T03:03:05;9.3;;;5.4;;
61739;SDS011;47645;45.288;12.038;2023-07-16T03:13:07;10.0;;;6.6;;
61739;SDS011;47645;45.288;12.038;2023-07-16T03:23:08;7.5;;;5.3;;
61739;SDS011;47645;45.288;12.038;2023-07-16T03:33:10;12.0;;;9.2;;
61739;SDS011;47645;45.288;12.038;2023-07-16T03:43:11;13.1;;;7.8;;
61739;SDS011;47645;45.288;12.038;2023-07-16T03:53:13;16.3;;;11.8;;
61739;SDS011;47645;45.288;12.038;2023-07-16T04:03:14;14.1;;;9.2;;
61739;SDS011;47645;45.288;12.038;2023-07-16T04:13:16;15.0;;;11.8;;
61739;SDS011;47645;45.288;12.038;2023-07-16T04:23:17;20.1;;;11.4;;
61739;SDS011;47645;45.288;12.038;2023-07-16T04:33:19;18.7;;;11.8;;
61739;SDS011;47645;45.288;12.038;2023-07-16T04:43:20;15.0;;;12.0;;
61739;SDS011;47645;45.288;12.038;2023-07-16T04:53:22;14.9;;;10.8;;
61739;SDS011;47645;45.288;12.038;2023-07-16T05:03:23;20.2;;;12.2;;
61739;SDS011;47645;45.288;12.038;2023-07-16T05:13:25;16.2;;;11.3;;
61739;SDS011;47645;45.288;12.038;2023-07-16T05:23:27;16.3;;;10.3;;
61739;SDS011;47645;45.288;12.038;2023-07-16T05:33:28;18.7;;;10.7;;
61739;SDS011;47645;45.288;12.038;2023-07-16T05:43:30;16.2;;;10.7;;
61739;SDS011;47645;45.288;12.038;2023-07-16T05:53:31;17.2;;;11.5;;
61739;SDS011;47645;45.288;12.038;2023-07-16T06:03:33;17.4;;;10.7;;
61739;SDS011;47645;45.288;12.038;2023-07-16T06:13:34;18.7;;;9.7;;
61739;SDS011;47645;45.288;12.038;2023-07-16T06:23:36;15.5;;;9.5;;
61739;SDS011;47645;45.288;12.038;2023-07-16T06:33:37;19.2;;;10.2;;
61739;SDS011;47645;45.288;12.038;2023-07-16T06:43:39;16.0;;;9.3;;
61739;SDS011;47645;45.288;12.038;2023-07-16T06:53:41;14.5;;;8.9;;
61739;SDS011;47645;45.288;12.038;2023-07-16T07:03:42;15.1;;;6.2;;
61739;SDS011;47645;45.288;12.038;2023-07-16T07:13:44;11.2;;;5.2;;
61739;SDS011;47645;45.288;12.038;2023-07-16T07:23:46;11.2;;;4.9;;
61739;SDS011;47645;45.288;12.038;2023-07-16T07:33:47;11.2;;;5.0;;
61739;SDS011;47645;45.288;12.038;2023-07-16T07:43:49;11.0;;;4.6;;
61739;SDS011;47645;45.288;12.038;2023-07-16T07:53:51;12.3;;;4.3;;
61739;SDS011;47645;45.288;12.038;2023-07-16T08:03:53;12.8;;;4.6;;
61739;SDS011;47645;45.288;12.038;2023-07-16T08:13:54;11.2;;;4.2;;
61739;SDS011;47645;45.288;12.038;2023-07-16T08:23:56;13.3;;;4.8;;
61739;SDS011;47645;45.288;12.038;2023-07-16T08:33:58;12.6;;;4.5;;
61739;SDS011;47645;45.288;12.038;2023-07-16T08:44:05;11.1;;;4.2;;
61739;SDS011;47645;45.288;12.038;2023-07-16T08:54:01;8.1;;;4.0;;
61739;SDS011;47645;45.288;12.038;2023-07-16T09:04:03;12.6;;;4.8;;
61739;SDS011;47645;45.288;12.038;2023-07-16T09:14:05;13.7;;;4.2;;
61739;SDS011;47645;45.288;12.038;2023-07-16T09:24:07;9.9;;;4.0;;
61739;SDS011;47645;45.288;12.038;2023-07-16T09:34:09;9.1;;;4.1;;
61739;SDS011;47645;45.288;12.038;2023-07-16T09:44:10;9.1;;;3.7;;
61739;SDS011;47645;45.288;12.038;2023-07-16T09:54:12;10.5;;;3.7;;
61739;SDS011;47645;45.288;12.038;2023-07-16T10:04:14;10.5;;;4.0;;
61739;SDS011;47645;45.288;12.038;2023-07-16T10:14:24;10.8;;;3.6;;
61739;SDS011;47645;45.288;12.038;2023-07-16T10:24:18;9.7;;;3.7;;
61739;SDS011;47645;45.288;12.038;2023-07-16T10:34:22;10.2;;;3.6;;
61739;SDS011;47645;45.288;12.038;2023-07-16T10:44:22;8.5;;;3.3;;
61739;SDS011;47645;45.288;12.038;2023-07-16T10:54:24;7.2;;;3.2;;
61739;SDS011;47645;45.288;12.038;2023-07-16T11:04:26;9.2;;;3.3;;
61739;SDS011;47645;45.288;12.038;2023-07-16T11:14:28;10.7;;;3.6;;
61739;SDS011;47645;45.288;12.038;2023-07-16T11:24:40;9.5;;;3.9;;
61739;SDS011;47645;45.288;12.038;2023-07-16T11:34:33;6.8;;;2.9;;
61739;SDS011;47645;45.288;12.038;2023-07-16T11:44:35;8.6;;;3.3;;
61739;SDS011;47645;45.288;12.038;2023-07-16T11:54:37;8.1;;;3.3;;
61739;SDS011;47645;45.288;12.038;2023-07-16T12:04:40;8.5;;;3.2;;
61739;SDS011;47645;45.288;12.038;2023-07-16T12:14:43;6.4;;;2.7;;
61739;SDS011;47645;45.288;12.038;2023-07-16T12:24:46;8.2;;;3.3;;
61739;SDS011;47645;45.288;12.038;2023-07-16T12:34:47;9.5;;;3.3;;
61739;SDS011;47645;45.288;12.038;2023-07-16T12:44:50;10.4;;;3.7;;
61739;SDS011;47645;45.288;12.038;2023-07-16T12:54:53;12.9;;;3.9;;
61739;SDS011;47645;45.288;12.038;2023-07-16T13:04:55;11.0;;;3.9;;
61739;SDS011;47645;45.288;12.038;2023-07-16T13:14:57;11.9;;;3.4;;
61739;SDS011;47645;45.288;12.038;2023-07-16T13:25:00;5.8;;;2.7;;
61739;SDS011;47645;45.288;12.038;2023-07-16T13:35:03;10.2;;;3.5;;
61739;SDS011;47645;45.288;12.038;2023-07-16T13:45:05;11.2;;;3.6;;
61739;SDS011;47645;45.288;12.038;2023-07-16T13:50:06;8.3;;;2.8;;
61739;SDS011;47645;45.288;12.038;2023-07-16T14:00:10;8.1;;;3.3;;
61739;SDS011;47645;45.288;12.038;2023-07-16T14:10:11;9.9;;;3.1;;
61739;SDS011;47645;45.288;12.038;2023-07-16T14:20:15;10.9;;;3.2;;
61739;SDS011;47645;45.288;12.038;2023-07-16T14:30:17;8.2;;;3.4;;
61739;SDS011;47645;45.288;12.038;2023-07-16T14:40:19;7.6;;;2.8;;
61739;SDS011;47645;45.288;12.038;2023-07-16T14:50:22;9.7;;;3.0;;
61739;SDS011;47645;45.288;12.038;2023-07-16T15:00:26;9.7;;;3.6;;
61739;SDS011;47645;45.288;12.038;2023-07-16T15:10:27;9.1;;;3.6;;
61739;SDS011;47645;45.288;12.038;2023-07-16T15:20:28;9.3;;;3.5;;
61739;SDS011;47645;45.288;12.038;2023-07-16T15:30:32;10.8;;;3.2;;
61739;SDS011;47645;45.288;12.038;2023-07-16T15:40:34;8.0;;;3.5;;
61739;SDS011;47645;45.288;12.038;2023-07-16T15:50:36;9.5;;;3.1;;
61739;SDS011;47645;45.288;12.038;2023-07-16T16:00:38;10.0;;;3.3;;
61739;SDS011;47645;45.288;12.038;2023-07-16T16:10:41;10.7;;;3.4;;
61739;SDS011;47645;45.288;12.038;2023-07-16T16:20:46;9.0;;;3.3;;
61739;SDS011;47645;45.288;12.038;2023-07-16T16:30:46;7.3;;;3.2;;
61739;SDS011;47645;45.288;12.038;2023-07-16T16:40:47;6.3;;;3.2;;
61739;SDS011;47645;45.288;12.038;2023-07-16T16:50:53;8.5;;;3.0;;
61739;SDS011;47645;45.288;12.038;2023-07-16T17:00:53;6.3;;;3.0;;
61739;SDS011;47645;45.288;12.038;2023-07-16T17:10:55;9.0;;;3.4;;
61739;SDS011;47645;45.288;12.038;2023-07-16T17:20:58;10.1;;;3.3;;
61739;SDS011;47645;45.288;12.038;2023-07-16T17:30:59;6.9;;;3.2;;
61739;SDS011;47645;45.288;12.038;2023-07-16T17:41:01;6.4;;;3.4;;
61739;SDS011;47645;45.288;12.038;2023-07-16T17:51:04;7.8;;;3.2;;
61739;SDS011;47645;45.288;12.038;2023-07-16T18:01:06;8.3;;;3.7;;
61739;SDS011;47645;45.288;12.038;2023-07-16T18:11:08;6.9;;;3.2;;
61739;SDS011;47645;45.288;12.038;2023-07-16T18:21:10;9.2;;;3.5;;
61739;SDS011;47645;45.288;12.038;2023-07-16T18:31:12;8.3;;;3.3;;
61739;SDS011;47645;45.288;12.038;2023-07-16T18:41:15;8.5;;;3.8;;
61739;SDS011;47645;45.288;12.038;2023-07-16T18:51:17;10.7;;;3.5;;
61739;SDS011;47645;45.288;12.038;2023-07-16T19:01:19;7.3;;;3.9;;
61739;SDS011;47645;45.288;12.038;2023-07-16T19:11:23;9.4;;;4.0;;
61739;SDS011;47645;45.288;12.038;2023-07-16T19:21:23;6.5;;;3.8;;
61739;SDS011;47645;45.288;12.038;2023-07-16T19:31:25;7.0;;;3.5;;
61739;SDS011;47645;45.288;12.038;2023-07-16T19:41:27;8.2;;;4.3;;
61739;SDS011;47645;45.288;12.038;2023-07-16T19:51:29;7.7;;;4.8;;
61739;SDS011;47645;45.288;12.038;2023-07-16T20:01:31;8.7;;;5.0;;
61739;SDS011;47645;45.288;12.038;2023-07-16T20:11:33;9.7;;;5.4;;
61739;SDS011;47645;45.288;12.038;2023-07-16T20:21:35;9.3;;;5.4;;
61739;SDS011;47645;45.288;12.038;2023-07-16T20:31:37;10.3;;;5.4;;
61739;SDS011;47645;45.288;12.038;2023-07-16T20:41:38;9.8;;;5.2;;
61739;SDS011;47645;45.288;12.038;2023-07-16T20:51:41;10.9;;;5.3;;
61739;SDS011;47645;45.288;12.038;2023-07-16T21:01:42;12.8;;;5.7;;
61739;SDS011;47645;45.288;12.038;2023-07-16T21:11:46;10.0;;;5.3;;
61739;SDS011;47645;45.288;12.038;2023-07-16T21:21:46;7.5;;;4.8;;
61739;SDS011;47645;45.288;12.038;2023-07-16T21:31:48;9.6;;;5.1;;
61739;SDS011;47645;45.288;12.038;2023-07-16T21:41:50;8.2;;;5.3;;
61739;SDS011;47645;45.288;12.038;2023-07-16T21:51:52;7.8;;;5.2;;
61739;SDS011;47645;45.288;12.038;2023-07-16T22:01:53;7.8;;;5.0;;
61739;SDS011;47645;45.288;12.038;2023-07-16T22:11:55;8.4;;;5.4;;
61739;SDS011;47645;45.288;12.038;2023-07-16T22:21:57;12.1;;;6.3;;
61739;SDS011;47645;45.288;12.038;2023-07-16T22:31:59;10.0;;;5.9;;
61739;SDS011;47645;45.288;12.038;2023-07-16T22:42:01;9.2;;;5.8;;
61739;SDS011;47645;45.288;12.038;2023-07-16T22:52:03;13.2;;;7.2;;
61739;SDS011;47645;45.288;12.038;2023-07-16T23:02:04;13.3;;;7.0;;
61739;SDS011;47645;45.288;12.038;2023-07-16T23:12:06;12.9;;;7.3;;
61739;SDS011;47645;45.288;12.038;2023-07-16T23:22:08;12.1;;;6.4;;
61739;SDS011;47645;45.288;12.038;2023-07-16T23:32:09;9.4;;;6.3;;
61739;SDS011;47645;45.288;12.038;2023-07-16T23:42:11;9.1;;;6.3;;
61739;SDS011;47645;45.288;12.038;2023-07-16T23:52:13;12.8;;;7.5;;
